Time;durP1;ratioP1;P1;durP2;ratioP2;P2;SDS_P1;SDS_P2;PMS_P1;PMS_P2;Temp;Humidity;BMP_temperature;BMP_pressure;BME280_temperature;BME280_humidity;BME280_pressure;Samples;Min_cycle;Max_cycle;Signal;HPM_P1;HPM_P2
2021/07/29 00:00:32;;;;;;;5.50;4.00;;;18.20;99.90;;;;;;4974388;28;20483;-71
2021/07/29 00:02:58;;;;;;;4.13;3.80;;;18.10;99.90;;;;;;4975784;28;20444;-71
2021/07/29 00:05:25;;;;;;;4.13;3.83;;;18.10;99.90;;;;;;4999143;28;20521;-71
2021/07/29 00:07:51;;;;;;;4.57;3.80;;;18.00;99.90;;;;;;5015055;28;20827;-71
2021/07/29 00:10:17;;;;;;;5.80;3.70;;;18.00;99.90;;;;;;5015741;28;20430;-71
2021/07/29 00:12:43;;;;;;;5.30;3.90;;;18.00;99.90;;;;;;5015376;28;20458;-71
2021/07/29 00:15:11;;;;;;;6.47;4.10;;;18.00;99.90;;;;;;5014992;28;20896;-71
2021/07/29 00:20:12;;;;;;;5.27;3.83;;;18.00;99.90;;;;;;5015521;28;20548;-71
2021/07/29 00:22:39;;;;;;;4.70;4.20;;;17.90;99.90;;;;;;5013574;28;20407;-71
2021/07/29 00:25:07;;;;;;;5.10;4.30;;;17.90;99.90;;;;;;5015049;28;20191;-71
2021/07/29 00:27:35;;;;;;;5.20;3.90;;;17.90;99.90;;;;;;5014833;28;20908;-71
2021/07/29 00:30:01;;;;;;;5.40;4.27;;;17.80;99.90;;;;;;5014319;28;20761;-71
2021/07/29 00:32:26;;;;;;;4.73;3.80;;;17.90;99.90;;;;;;5015432;28;20434;-71
2021/07/29 00:34:52;;;;;;;4.43;3.90;;;17.80;99.90;;;;;;5015097;28;20172;-71
2021/07/29 00:37:18;;;;;;;4.03;3.63;;;17.70;99.90;;;;;;5014926;28;20187;-71
2021/07/29 00:39:43;;;;;;;6.30;3.80;;;17.80;99.90;;;;;;5015474;28;20659;-71
2021/07/29 00:42:09;;;;;;;4.57;4.03;;;17.70;99.90;;;;;;5014610;28;20213;-71
2021/07/29 00:44:37;;;;;;;5.40;4.07;;;17.70;99.90;;;;;;5014793;28;20234;-71
2021/07/29 00:47:02;;;;;;;4.73;4.30;;;17.80;99.90;;;;;;5014984;28;20981;-71
2021/07/29 00:49:28;;;;;;;4.17;3.47;;;17.80;99.90;;;;;;5014785;28;20410;-71
2021/07/29 00:51:54;;;;;;;5.10;4.60;;;17.80;99.90;;;;;;5013763;28;20399;-71
2021/07/29 00:54:23;;;;;;;4.77;4.37;;;17.60;99.90;;;;;;5014525;28;20187;-72
2021/07/29 00:56:50;;;;;;;4.43;4.03;;;17.70;99.90;;;;;;5014334;28;20156;-71
2021/07/29 00:59:15;;;;;;;4.70;3.70;;;17.70;99.90;;;;;;5014582;28;20810;-71
2021/07/29 01:01:41;;;;;;;7.00;3.50;;;17.70;99.90;;;;;;5014241;28;20494;-71
2021/07/29 01:04:07;;;;;;;4.53;4.13;;;17.70;99.90;;;;;;5013885;28;20672;-71
2021/07/29 01:06:32;;;;;;;4.50;4.10;;;17.80;99.90;;;;;;5014733;28;20163;-71
2021/07/29 01:09:09;;;;;;;4.87;4.20;;;17.90;99.90;;;;;;5022974;28;20462;-72
2021/07/29 01:11:39;;;;;;;4.23;3.83;;;17.90;99.90;;;;;;5007394;28;20200;-71
2021/07/29 01:14:05;;;;;;;4.93;4.10;;;17.90;99.90;;;;;;4999803;28;20451;-71
2021/07/29 01:16:31;;;;;;;5.57;3.87;;;17.90;99.90;;;;;;4996466;28;20519;-71
2021/07/29 01:18:58;;;;;;;4.20;3.80;;;17.80;99.90;;;;;;5001186;28;20528;-71
2021/07/29 01:21:28;;;;;;;4.70;4.30;;;17.80;99.90;;;;;;4981127;28;20991;-70
2021/07/29 01:23:54;;;;;;;4.07;3.67;;;17.70;99.90;;;;;;4998571;28;20549;-70
2021/07/29 01:26:19;;;;;;;4.17;3.77;;;17.70;99.90;;;;;;4999800;28;20471;-71
2021/07/29 01:28:45;;;;;;;4.40;3.83;;;17.60;99.90;;;;;;5004530;28;20725;-70
2021/07/29 01:31:10;;;;;;;3.70;3.27;;;17.50;99.90;;;;;;5001420;28;20204;-71
2021/07/29 01:33:37;;;;;;;4.20;3.80;;;17.30;99.90;;;;;;5018476;28;20267;-70
2021/07/29 01:36:04;;;;;;;3.70;3.40;;;17.30;99.90;;;;;;5013956;28;20530;-70
2021/07/29 01:38:30;;;;;;;3.27;2.97;;;17.20;99.90;;;;;;5005779;28;20427;-70
2021/07/29 01:40:55;;;;;;;4.17;3.13;;;17.30;99.90;;;;;;5013695;28;20862;-71
2021/07/29 01:43:21;;;;;;;4.70;3.37;;;17.20;99.90;;;;;;5017642;28;20450;-70
2021/07/29 01:45:47;;;;;;;3.30;3.00;;;17.30;99.90;;;;;;5017735;28;20558;-70
2021/07/29 01:48:13;;;;;;;3.73;3.30;;;17.20;99.90;;;;;;5017430;28;20464;-70
2021/07/29 01:50:38;;;;;;;3.20;2.97;;;17.30;99.90;;;;;;5017940;28;20434;-71
2021/07/29 01:53:04;;;;;;;3.40;3.10;;;17.20;99.90;;;;;;5017517;28;20223;-70
2021/07/29 01:55:30;;;;;;;5.13;3.20;;;17.10;99.90;;;;;;5018083;28;20180;-71
2021/07/29 01:57:55;;;;;;;3.10;2.80;;;17.10;99.90;;;;;;5018388;28;20187;-70
2021/07/29 02:00:22;;;;;;;4.53;2.83;;;17.10;99.90;;;;;;5017440;28;20219;-70
2021/07/29 02:02:48;;;;;;;3.40;3.00;;;17.10;99.90;;;;;;5017818;28;20259;-70
2021/07/29 02:05:14;;;;;;;4.00;3.20;;;17.20;99.90;;;;;;4999901;28;20576;-70
2021/07/29 02:07:40;;;;;;;3.27;2.80;;;17.10;99.90;;;;;;5018182;28;20505;-70
2021/07/29 02:10:06;;;;;;;3.20;2.90;;;17.20;99.90;;;;;;5018717;28;20207;-71
2021/07/29 02:12:31;;;;;;;3.30;3.00;;;17.10;99.90;;;;;;5017738;28;20195;-71
2021/07/29 02:14:57;;;;;;;3.83;2.87;;;17.20;99.90;;;;;;5017558;28;20923;-70
2021/07/29 02:17:23;;;;;;;3.73;3.07;;;17.10;99.90;;;;;;5017997;28;20171;-70
2021/07/29 02:19:48;;;;;;;3.27;2.93;;;17.10;99.90;;;;;;5017567;28;20416;-70
2021/07/29 02:22:15;;;;;;;3.30;3.00;;;17.10;99.90;;;;;;5017343;28;20532;-70
2021/07/29 02:24:40;;;;;;;3.70;3.30;;;17.00;99.90;;;;;;5017222;28;20175;-70
2021/07/29 02:27:06;;;;;;;4.50;2.63;;;17.10;99.90;;;;;;5017371;28;20418;-70
2021/07/29 02:29:31;;;;;;;4.20;3.30;;;17.10;99.90;;;;;;5000284;28;20168;-70
2021/07/29 02:31:57;;;;;;;3.37;3.07;;;17.10;99.90;;;;;;5025482;28;20159;-70
2021/07/29 02:34:22;;;;;;;3.40;2.73;;;17.10;99.90;;;;;;5040293;28;20515;-70
2021/07/29 02:36:49;;;;;;;4.90;3.00;;;17.10;99.90;;;;;;5040309;28;20172;-69
2021/07/29 02:39:15;;;;;;;3.63;3.07;;;17.10;99.90;;;;;;5030082;28;20186;-69
2021/07/29 02:41:41;;;;;;;4.00;2.53;;;17.10;99.90;;;;;;5018106;28;20939;-69
2021/07/29 02:44:06;;;;;;;3.90;3.50;;;17.10;99.90;;;;;;5017789;28;20435;-70
2021/07/29 02:46:32;;;;;;;3.80;3.40;;;17.00;99.90;;;;;;5017280;28;20179;-70
2021/07/29 02:48:57;;;;;;;4.57;2.77;;;17.10;99.90;;;;;;5017285;28;20578;-70
2021/07/29 02:51:23;;;;;;;4.73;3.37;;;17.10;99.90;;;;;;5017508;28;20183;-71
2021/07/29 02:53:48;;;;;;;5.00;3.50;;;17.10;99.90;;;;;;5016914;28;20545;-70
2021/07/29 02:56:14;;;;;;;3.30;3.00;;;17.10;99.90;;;;;;5016621;28;20171;-70
2021/07/29 02:58:39;;;;;;;3.53;2.97;;;17.00;99.90;;;;;;5017855;28;20663;-70
2021/07/29 03:01:05;;;;;;;3.27;2.97;;;17.00;99.90;;;;;;5016620;28;20212;-70
2021/07/29 03:03:31;;;;;;;5.40;4.00;;;17.00;99.90;;;;;;5017145;28;20200;-71
2021/07/29 03:05:56;;;;;;;5.10;3.80;;;16.90;99.90;;;;;;5016063;28;20215;-71
2021/07/29 03:08:22;;;;;;;5.97;3.40;;;16.90;99.90;;;;;;5016107;28;20221;-71
2021/07/29 03:10:48;;;;;;;4.10;3.80;;;16.80;99.90;;;;;;5016084;28;20172;-71
2021/07/29 03:13:14;;;;;;;3.87;3.10;;;16.80;99.90;;;;;;5016086;28;20199;-71
2021/07/29 03:15:40;;;;;;;3.50;3.03;;;16.70;99.90;;;;;;5016574;28;20412;-71
2021/07/29 03:18:06;;;;;;;4.03;3.63;;;16.70;99.90;;;;;;5016088;28;20419;-71
2021/07/29 03:20:31;;;;;;;4.77;3.10;;;16.70;99.90;;;;;;5016251;28;20665;-71
2021/07/29 03:22:57;;;;;;;4.27;3.33;;;16.60;99.90;;;;;;5016151;28;20184;-71
2021/07/29 03:25:22;;;;;;;4.40;3.67;;;16.70;99.90;;;;;;5015918;28;20190;-71
2021/07/29 03:27:48;;;;;;;7.03;4.07;;;16.60;99.90;;;;;;4994295;28;20201;-71
2021/07/29 03:30:13;;;;;;;3.37;3.07;;;16.60;99.90;;;;;;4989033;28;20534;-71
2021/07/29 03:32:39;;;;;;;4.00;3.53;;;16.70;99.90;;;;;;4977092;28;20200;-71
2021/07/29 03:35:05;;;;;;;4.20;3.03;;;16.60;99.90;;;;;;4977064;28;20181;-70
2021/07/29 03:37:30;;;;;;;5.70;3.70;;;16.60;99.90;;;;;;4979312;28;20627;-70
2021/07/29 03:40:03;;;;;;;3.77;3.47;;;16.60;99.90;;;;;;4977249;28;20969;-70
2021/07/29 03:42:30;;;;;;;3.27;2.93;;;16.50;99.90;;;;;;4976658;28;20268;-70
2021/07/29 03:44:55;;;;;;;4.82;3.70;;;16.50;99.90;;;;;;4976224;28;20472;-71
2021/07/29 03:47:21;;;;;;;3.97;3.50;;;16.60;99.90;;;;;;4976397;28;20177;-71
2021/07/29 03:49:46;;;;;;;4.60;4.10;;;16.50;99.90;;;;;;4977261;28;20177;-70
2021/07/29 03:52:12;;;;;;;5.70;4.17;;;16.60;99.90;;;;;;4976785;28;20173;-70
2021/07/29 03:54:37;;;;;;;4.20;3.80;;;16.60;99.90;;;;;;4976603;28;20161;-71
2021/07/29 03:57:03;;;;;;;4.23;3.83;;;16.60;99.90;;;;;;4976642;28;20187;-71
2021/07/29 03:59:29;;;;;;;6.63;4.30;;;16.60;99.90;;;;;;4976660;28;20192;-71
2021/07/29 04:01:54;;;;;;;5.07;3.93;;;16.60;99.90;;;;;;4976614;28;20940;-71
2021/07/29 04:04:20;;;;;;;6.53;4.50;;;16.60;99.90;;;;;;4972367;28;20205;-71
2021/07/29 04:06:45;;;;;;;4.93;4.43;;;16.50;99.90;;;;;;4957816;29;20236;-71
2021/07/29 04:09:11;;;;;;;4.37;3.97;;;16.50;99.90;;;;;;4956648;29;20170;-71
2021/07/29 04:11:36;;;;;;;6.10;4.70;;;16.50;99.90;;;;;;4956505;29;20174;-72
2021/07/29 04:14:02;;;;;;;5.67;3.90;;;16.50;99.90;;;;;;4972520;28;20212;-71
2021/07/29 04:16:27;;;;;;;7.83;4.10;;;16.50;99.90;;;;;;4958995;28;20615;-71
2021/07/29 04:18:53;;;;;;;3.93;3.63;;;16.50;99.90;;;;;;4974966;28;20189;-71
2021/07/29 04:21:18;;;;;;;5.87;4.20;;;16.50;99.90;;;;;;4975921;28;20271;-71
2021/07/29 04:23:44;;;;;;;5.47;4.47;;;16.40;99.90;;;;;;4980838;28;20209;-70
2021/07/29 04:26:09;;;;;;;6.03;4.33;;;16.40;99.90;;;;;;4999224;28;20181;-71
2021/07/29 04:28:35;;;;;;;4.40;3.80;;;16.40;99.90;;;;;;4985454;28;20247;-70
2021/07/29 04:31:01;;;;;;;3.97;3.60;;;16.50;99.90;;;;;;4976371;28;20212;-71
2021/07/29 04:33:26;;;;;;;6.80;4.07;;;16.50;99.90;;;;;;4975329;28;20228;-70
2021/07/29 04:35:52;;;;;;;4.47;3.77;;;16.60;99.90;;;;;;4975721;28;20272;-70
2021/07/29 04:38:17;;;;;;;6.13;4.30;;;16.60;99.90;;;;;;4976067;28;20211;-70
2021/07/29 04:40:43;;;;;;;5.53;3.67;;;16.60;99.90;;;;;;4975889;28;20196;-71
2021/07/29 04:43:08;;;;;;;5.70;3.83;;;16.60;99.90;;;;;;4975488;28;20204;-70
2021/07/29 04:45:34;;;;;;;4.40;3.80;;;16.70;99.90;;;;;;4975979;28;20203;-70
2021/07/29 04:47:59;;;;;;;4.40;4.00;;;16.60;99.90;;;;;;4976658;28;20252;-70
2021/07/29 04:50:25;;;;;;;5.10;3.50;;;16.60;99.90;;;;;;4973426;28;20181;-71
2021/07/29 04:52:52;;;;;;;7.93;4.60;;;16.60;99.90;;;;;;4974149;28;20279;-70
2021/07/29 04:55:18;;;;;;;3.90;3.50;;;16.60;99.90;;;;;;4975018;28;20200;-71
2021/07/29 04:57:43;;;;;;;4.78;3.90;;;16.60;99.90;;;;;;4975183;28;20414;-71
2021/07/29 05:00:09;;;;;;;3.90;3.50;;;16.60;99.90;;;;;;4975152;28;20225;-71
2021/07/29 05:02:35;;;;;;;4.47;3.77;;;16.60;99.90;;;;;;4976932;28;20571;-71
2021/07/29 05:05:00;;;;;;;5.37;3.67;;;16.60;99.90;;;;;;4976765;28;20463;-71
2021/07/29 05:07:26;;;;;;;5.60;3.67;;;16.60;99.90;;;;;;4977588;28;20183;-71
2021/07/29 05:09:51;;;;;;;4.80;3.90;;;16.60;99.90;;;;;;4978433;28;20193;-69
2021/07/29 05:12:17;;;;;;;5.17;3.87;;;16.60;99.90;;;;;;4976888;28;20196;-71
2021/07/29 05:14:42;;;;;;;6.00;3.33;;;16.60;99.90;;;;;;4977622;28;20197;-70
2021/07/29 05:17:08;;;;;;;3.83;3.33;;;16.60;99.90;;;;;;4979093;28;20591;-70
2021/07/29 05:19:33;;;;;;;7.23;3.40;;;16.60;99.90;;;;;;4978041;28;20177;-70
2021/07/29 05:21:59;;;;;;;4.00;3.43;;;16.60;99.90;;;;;;4976969;28;20208;-71
2021/07/29 05:24:24;;;;;;;3.47;3.17;;;16.60;99.90;;;;;;4976520;28;20538;-71
2021/07/29 05:26:50;;;;;;;5.00;3.43;;;16.70;99.90;;;;;;4976274;28;20575;-70
2021/07/29 05:29:15;;;;;;;5.50;3.37;;;16.60;99.90;;;;;;4975717;28;20189;-70
2021/07/29 05:31:41;;;;;;;7.13;3.40;;;16.60;99.90;;;;;;4977266;28;20165;-70
2021/07/29 05:34:09;;;;;;;5.30;2.97;;;16.60;99.90;;;;;;4975785;28;20189;-70
2021/07/29 05:36:35;;;;;;;4.67;3.40;;;16.60;99.90;;;;;;4975544;28;20504;-69
2021/07/29 05:39:01;;;;;;;5.85;3.70;;;16.60;99.90;;;;;;4974564;28;20453;-70
2021/07/29 05:41:26;;;;;;;6.97;3.03;;;16.70;99.90;;;;;;4975274;28;20247;-70
2021/07/29 05:43:52;;;;;;;5.10;3.27;;;16.60;99.90;;;;;;4975161;28;20232;-70
2021/07/29 05:46:17;;;;;;;8.47;3.40;;;16.70;99.90;;;;;;4974147;28;20204;-71
2021/07/29 05:48:43;;;;;;;7.23;3.53;;;16.70;99.90;;;;;;4987098;28;20350;-71
2021/07/29 05:51:09;;;;;;;4.27;2.93;;;16.70;99.90;;;;;;4982055;28;20185;-70
2021/07/29 05:53:34;;;;;;;5.57;2.73;;;16.70;99.90;;;;;;4997170;28;20220;-71
2021/07/29 05:56:00;;;;;;;4.03;2.90;;;16.70;99.90;;;;;;4996384;28;20197;-70
2021/07/29 05:58:26;;;;;;;5.87;2.83;;;16.70;99.90;;;;;;4973012;28;20243;-71
2021/07/29 06:00:52;;;;;;;6.87;3.30;;;16.80;99.90;;;;;;4974545;28;20223;-71
2021/07/29 06:03:18;;;;;;;5.67;3.80;;;16.80;99.90;;;;;;4974485;28;20854;-71
2021/07/29 06:05:44;;;;;;;5.73;3.10;;;16.90;99.90;;;;;;4975011;28;20502;-71
2021/07/29 06:08:10;;;;;;;6.97;3.22;;;16.90;99.90;;;;;;4974893;28;20519;-70
2021/07/29 06:10:36;;;;;;;6.40;3.87;;;17.00;99.90;;;;;;4975046;28;20280;-70
2021/07/29 06:13:01;;;;;;;5.80;3.40;;;17.10;99.90;;;;;;4974289;28;20492;-70
2021/07/29 06:15:27;;;;;;;6.72;3.40;;;17.10;99.90;;;;;;4973814;28;20422;-70
2021/07/29 06:17:58;;;;;;;6.50;3.40;;;17.00;99.90;;;;;;4975863;28;20165;-70
2021/07/29 06:20:23;;;;;;;6.00;2.90;;;17.00;99.90;;;;;;4975117;28;20196;-70
2021/07/29 06:22:49;;;;;;;7.90;5.13;;;17.00;99.90;;;;;;4973132;28;20997;-70
2021/07/29 06:25:17;;;;;;;5.33;4.40;;;17.10;99.90;;;;;;4974624;28;20208;-71
2021/07/29 06:27:44;;;;;;;5.53;3.73;;;17.10;99.90;;;;;;4970763;28;20576;-70
2021/07/29 06:30:09;;;;;;;6.70;3.50;;;17.20;99.90;;;;;;4977718;28;20438;-70
2021/07/29 06:32:35;;;;;;;6.77;3.80;;;17.20;99.90;;;;;;4967402;28;20463;-70
2021/07/29 06:35:00;;;;;;;4.07;3.67;;;17.40;99.90;;;;;;4971116;28;20193;-70
2021/07/29 06:37:26;;;;;;;4.10;2.70;;;17.50;99.90;;;;;;4971894;28;20193;-70
2021/07/29 06:39:52;;;;;;;4.73;3.40;;;17.50;99.90;;;;;;4976297;28;20189;-70
2021/07/29 06:42:17;;;;;;;5.37;3.23;;;17.50;99.90;;;;;;4975458;28;20240;-70
2021/07/29 06:44:43;;;;;;;6.47;2.97;;;17.50;99.90;;;;;;4975239;28;20279;-71
2021/07/29 06:47:15;;;;;;;5.00;3.57;;;17.50;99.90;;;;;;4975600;28;20173;-70
2021/07/29 06:49:40;;;;;;;6.47;3.00;;;17.50;99.90;;;;;;4976163;28;20241;-70
2021/07/29 06:52:06;;;;;;;6.93;4.33;;;17.50;99.90;;;;;;4979073;28;20459;-69
2021/07/29 06:54:32;;;;;;;4.53;2.93;;;17.50;99.90;;;;;;4977047;28;20201;-70
2021/07/29 06:56:57;;;;;;;8.03;3.17;;;17.50;99.90;;;;;;4992100;28;20189;-71
2021/07/29 06:59:23;;;;;;;6.30;3.57;;;17.50;99.90;;;;;;4996668;28;20181;-70
2021/07/29 07:01:48;;;;;;;6.50;2.67;;;17.50;99.90;;;;;;4999245;28;20220;-71
2021/07/29 07:04:14;;;;;;;6.33;3.57;;;17.60;99.90;;;;;;4998934;28;20231;-70
2021/07/29 07:06:40;;;;;;;4.23;2.80;;;17.60;99.90;;;;;;4985875;28;20273;-71
2021/07/29 07:09:05;;;;;;;5.10;3.00;;;17.70;99.90;;;;;;4974760;28;20189;-71
2021/07/29 07:11:31;;;;;;;6.07;2.50;;;17.70;99.90;;;;;;4974452;28;20189;-71
2021/07/29 07:13:56;;;;;;;3.47;2.63;;;17.70;99.90;;;;;;4974066;28;20227;-71
2021/07/29 07:16:22;;;;;;;10.70;2.97;;;17.70;99.90;;;;;;4974287;28;20716;-71
2021/07/29 07:18:47;;;;;;;3.10;2.20;;;17.80;99.90;;;;;;4974511;28;20173;-72
2021/07/29 07:21:13;;;;;;;5.03;2.67;;;17.70;99.90;;;;;;4977879;28;20275;-71
2021/07/29 07:23:43;;;;;;;4.67;2.23;;;17.70;99.90;;;;;;4973180;28;20224;-71
2021/07/29 07:26:20;;;;;;;3.93;3.63;;;17.80;99.90;;;;;;4972487;28;20181;-70
2021/07/29 07:28:46;;;;;;;2.93;2.20;;;17.80;99.90;;;;;;4960869;28;20753;-72
2021/07/29 07:31:12;;;;;;;4.23;2.33;;;17.90;99.90;;;;;;4954979;29;20728;-71
2021/07/29 07:33:37;;;;;;;2.37;2.10;;;18.00;99.90;;;;;;4954560;29;20483;-72
2021/07/29 07:36:03;;;;;;;2.60;2.00;;;18.00;99.90;;;;;;4967106;28;20666;-71
2021/07/29 07:38:29;;;;;;;4.83;2.40;;;18.10;99.90;;;;;;4973422;28;20205;-71
2021/07/29 07:40:55;;;;;;;5.50;2.93;;;18.20;99.90;;;;;;4973701;28;20536;-70
2021/07/29 07:43:20;;;;;;;5.17;2.40;;;18.30;99.90;;;;;;4973705;28;20193;-71
2021/07/29 07:45:48;;;;;;;3.00;2.20;;;18.30;99.90;;;;;;4973980;28;20244;-71
2021/07/29 07:48:14;;;;;;;2.40;2.20;;;18.30;99.90;;;;;;4973815;28;20658;-71
2021/07/29 07:50:40;;;;;;;4.30;2.40;;;18.40;99.90;;;;;;4973426;28;20535;-71
2021/07/29 07:53:06;;;;;;;5.03;2.30;;;18.50;99.90;;;;;;4973419;28;20219;-71
2021/07/29 07:55:33;;;;;;;4.07;2.40;;;18.50;99.90;;;;;;4972315;28;20436;-71
2021/07/29 07:57:59;;;;;;;5.83;2.63;;;18.50;99.90;;;;;;4973501;28;20507;-70
2021/07/29 08:00:24;;;;;;;4.87;2.17;;;18.50;99.90;;;;;;4973069;28;20810;-72
2021/07/29 08:02:50;;;;;;;4.50;2.53;;;18.50;99.90;;;;;;4972244;28;20252;-70
2021/07/29 08:05:15;;;;;;;8.20;2.50;;;18.50;99.90;;;;;;4972601;28;20251;-72
2021/07/29 08:07:41;;;;;;;2.93;2.10;;;18.50;99.90;;;;;;4974228;28;20189;-70
2021/07/29 08:10:07;;;;;;;4.13;2.40;;;18.50;99.90;;;;;;4972347;28;20203;-71
2021/07/29 08:12:32;;;;;;;4.60;2.80;;;18.50;99.90;;;;;;4972345;28;20544;-71
2021/07/29 08:14:58;;;;;;;3.10;2.23;;;18.50;99.90;;;;;;4972307;28;20435;-71
2021/07/29 08:17:23;;;;;;;5.17;2.80;;;18.50;99.90;;;;;;4972442;28;20188;-71
2021/07/29 08:19:49;;;;;;;4.70;2.40;;;18.50;99.90;;;;;;4972613;28;20566;-70
2021/07/29 08:22:14;;;;;;;7.70;2.90;;;18.60;99.90;;;;;;4972310;28;20211;-70
2021/07/29 08:24:40;;;;;;;3.00;2.50;;;18.60;99.90;;;;;;4972383;28;20208;-71
2021/07/29 08:27:05;;;;;;;3.23;2.30;;;18.70;99.90;;;;;;4973084;28;20181;-71
2021/07/29 08:29:31;;;;;;;4.33;2.03;;;18.60;99.90;;;;;;4972559;28;20188;-71
2021/07/29 08:32:00;;;;;;;4.33;2.63;;;18.70;99.90;;;;;;4972564;28;20208;-71
2021/07/29 08:34:26;;;;;;;7.03;2.63;;;18.80;99.90;;;;;;4954829;28;20192;-70
2021/07/29 08:36:52;;;;;;;7.25;2.58;;;18.90;99.90;;;;;;4972468;28;20788;-71
2021/07/29 08:39:18;;;;;;;5.10;2.63;;;18.90;99.90;;;;;;4972323;28;20193;-71
2021/07/29 08:41:43;;;;;;;4.07;2.50;;;19.00;99.90;;;;;;4972671;28;20444;-71
2021/07/29 08:44:09;;;;;;;5.73;2.23;;;18.90;99.90;;;;;;4954890;28;20498;-71
2021/07/29 08:46:36;;;;;;;2.90;2.33;;;18.90;99.90;;;;;;4972847;28;20253;-71
2021/07/29 08:49:02;;;;;;;9.60;2.97;;;19.10;99.90;;;;;;4972385;28;20184;-70
2021/07/29 08:51:28;;;;;;;4.50;2.83;;;19.30;99.90;;;;;;4971674;28;20416;-71
2021/07/29 08:53:54;;;;;;;5.90;2.40;;;19.10;99.50;;;;;;4972239;28;20964;-71
2021/07/29 08:56:28;;;;;;;3.13;2.10;;;19.00;98.70;;;;;;4973202;28;20256;-71
2021/07/29 08:58:54;;;;;;;6.20;2.43;;;19.10;98.70;;;;;;4973009;28;20422;-72
2021/07/29 09:01:19;;;;;;;3.60;2.50;;;19.10;98.60;;;;;;4973434;28;20466;-71
2021/07/29 09:03:45;;;;;;;2.80;2.17;;;19.20;98.50;;;;;;4973838;28;20215;-70
2021/07/29 09:06:13;;;;;;;3.97;2.53;;;19.20;98.30;;;;;;4972232;28;20422;-71
2021/07/29 09:08:45;;;;;;;5.00;2.20;;;19.40;98.20;;;;;;4972829;28;20452;-71
2021/07/29 09:11:36;;;;;;;6.60;2.50;;;19.60;98.10;;;;;;4972844;28;20436;-71
2021/07/29 09:14:04;;;;;;;3.70;2.13;;;19.70;98.00;;;;;;4972628;28;20507;-71
2021/07/29 09:16:37;;;;;;;5.23;2.60;;;19.80;96.90;;;;;;4972350;28;20422;-71
2021/07/29 09:19:03;;;;;;;6.40;2.70;;;19.80;97.10;;;;;;4975040;28;20459;-70
2021/07/29 09:21:28;;;;;;;4.30;2.27;;;19.80;97.30;;;;;;4974851;28;20578;-70
2021/07/29 09:24:05;;;;;;;7.30;3.30;;;19.80;97.10;;;;;;4971981;28;20196;-71
2021/07/29 09:26:59;;;;;;;3.40;2.40;;;19.70;96.70;;;;;;4971435;28;20538;-70
2021/07/29 09:29:27;;;;;;;4.43;2.27;;;19.60;96.60;;;;;;4966312;28;20421;-71
2021/07/29 09:32:05;;;;;;;5.67;1.90;;;19.60;96.90;;;;;;4954908;29;20424;-71
2021/07/29 09:34:44;;;;;;;4.70;2.73;;;19.60;96.80;;;;;;4953879;28;20413;-72
2021/07/29 09:37:10;;;;;;;2.50;2.30;;;19.60;95.90;;;;;;4972114;28;20427;-70
2021/07/29 09:39:36;;;;;;;6.00;2.50;;;19.50;96.00;;;;;;4972303;28;20420;-71
2021/07/29 09:42:19;;;;;;;5.40;2.73;;;19.50;96.00;;;;;;4971876;28;20603;-71
2021/07/29 09:44:48;;;;;;;3.63;2.43;;;19.60;96.20;;;;;;4972318;28;20269;-71
2021/07/29 09:47:15;;;;;;;7.07;3.00;;;19.50;96.00;;;;;;4972015;28;20907;-70
2021/07/29 09:49:41;;;;;;;4.17;2.23;;;19.40;95.80;;;;;;4972249;28;20470;-71
2021/07/29 09:52:07;;;;;;;2.80;2.50;;;19.40;96.30;;;;;;4972429;28;20416;-71
2021/07/29 09:54:35;;;;;;;5.73;2.27;;;19.50;96.60;;;;;;4972113;28;20424;-71
2021/07/29 09:57:01;;;;;;;10.33;2.43;;;19.70;96.90;;;;;;4973344;28;20467;-70
2021/07/29 09:59:27;;;;;;;4.03;2.13;;;19.80;96.20;;;;;;4971536;28;20443;-72
2021/07/29 10:01:54;;;;;;;6.70;3.10;;;19.80;96.10;;;;;;4972554;28;20470;-70
2021/07/29 10:04:43;;;;;;;4.83;2.60;;;19.70;96.20;;;;;;4973751;28;20227;-70
2021/07/29 10:07:18;;;;;;;4.60;2.70;;;19.80;96.50;;;;;;4976128;28;20890;-71
2021/07/29 10:09:47;;;;;;;8.83;2.87;;;19.70;96.40;;;;;;4975712;28;20462;-71
2021/07/29 10:12:33;;;;;;;5.57;2.83;;;19.80;96.80;;;;;;4974421;28;20694;-71
2021/07/29 10:15:01;;;;;;;5.37;2.40;;;19.90;96.90;;;;;;4974505;28;20423;-71
2021/07/29 10:17:35;;;;;;;2.83;1.97;;;19.70;95.70;;;;;;4974411;28;20435;-71
2021/07/29 10:20:14;;;;;;;3.80;2.50;;;19.70;94.70;;;;;;4975584;28;20415;-70
2021/07/29 10:22:40;;;;;;;4.93;2.60;;;19.80;95.10;;;;;;4975265;28;20464;-70
2021/07/29 10:25:06;;;;;;;4.83;2.77;;;19.80;95.20;;;;;;4973533;28;21029;-71
2021/07/29 10:27:32;;;;;;;5.20;2.40;;;19.80;95.10;;;;;;4974413;28;20432;-70
2021/07/29 10:30:19;;;;;;;3.70;2.60;;;19.90;94.80;;;;;;4974903;28;20511;-70
2021/07/29 10:32:52;;;;;;;5.13;2.23;;;19.90;94.90;;;;;;4975488;28;20424;-71
2021/07/29 10:35:40;;;;;;;5.67;2.60;;;19.90;94.50;;;;;;4973647;28;20769;-70
2021/07/29 10:38:05;;;;;;;3.77;2.20;;;20.00;94.40;;;;;;4974983;28;20785;-71
2021/07/29 10:40:36;;;;;;;6.93;2.63;;;20.00;94.50;;;;;;4975348;28;20547;-71
2021/07/29 10:43:20;;;;;;;3.67;2.27;;;20.10;94.30;;;;;;4973640;28;20208;-71
2021/07/29 10:45:53;;;;;;;2.97;1.93;;;19.90;94.80;;;;;;4973385;28;20412;-70
2021/07/29 10:48:50;;;;;;;6.50;2.77;;;20.00;95.20;;;;;;4975007;28;20519;-70
2021/07/29 10:51:18;;;;;;;3.33;2.30;;;20.00;94.80;;;;;;4957428;28;20430;-71
2021/07/29 10:53:45;;;;;;;7.67;2.87;;;20.00;94.50;;;;;;4974655;28;20515;-70
2021/07/29 10:56:13;;;;;;;4.67;3.67;;;20.10;94.60;;;;;;4973692;28;20913;-71
2021/07/29 10:58:43;;;;;;;4.30;2.60;;;20.20;94.30;;;;;;4975142;28;20419;-71
2021/07/29 11:01:10;;;;;;;7.60;2.90;;;20.30;94.20;;;;;;4974327;28;20448;-71
2021/07/29 11:03:46;;;;;;;3.70;2.50;;;20.40;94.00;;;;;;4974508;28;20511;-71
2021/07/29 11:06:42;;;;;;;3.03;2.23;;;20.30;93.40;;;;;;4974058;28;20514;-70
2021/07/29 11:09:21;;;;;;;3.40;2.63;;;20.20;93.30;;;;;;4976123;28;20444;-70
2021/07/29 11:11:49;;;;;;;6.50;3.23;;;20.20;93.70;;;;;;4976234;28;20455;-71
2021/07/29 11:14:29;;;;;;;5.50;3.13;;;20.20;93.70;;;;;;4975327;28;20547;-71
2021/07/29 11:17:00;;;;;;;6.63;2.47;;;20.10;94.20;;;;;;4958400;28;20432;-69
2021/07/29 11:19:26;;;;;;;9.17;3.20;;;20.20;94.50;;;;;;4975008;28;20444;-69
2021/07/29 11:22:03;;;;;;;8.43;2.70;;;20.20;94.10;;;;;;4975993;28;20471;-71
2021/07/29 11:24:29;;;;;;;3.23;2.30;;;20.30;93.70;;;;;;4978843;28;20169;-71
2021/07/29 11:26:55;;;;;;;6.13;2.80;;;20.30;93.80;;;;;;4982762;28;20408;-70
2021/07/29 11:29:20;;;;;;;8.80;3.80;;;20.30;93.90;;;;;;4982422;28;20224;-70
2021/07/29 11:31:46;;;;;;;5.63;3.20;;;20.40;93.80;;;;;;4982764;28;20192;-70
2021/07/29 11:34:12;;;;;;;5.47;2.60;;;20.50;93.90;;;;;;4982224;28;20271;-70
2021/07/29 11:36:37;;;;;;;9.33;3.27;;;20.60;93.70;;;;;;4984803;28;20185;-70
2021/07/29 11:39:06;;;;;;;2.60;2.00;;;20.70;93.30;;;;;;4982890;28;20173;-71
2021/07/29 11:41:52;;;;;;;2.80;2.20;;;20.70;92.70;;;;;;4982939;28;20685;-70
2021/07/29 11:44:18;;;;;;;6.67;3.00;;;20.80;92.60;;;;;;4979211;28;20503;-70
2021/07/29 11:46:57;;;;;;;4.90;2.70;;;21.00;93.10;;;;;;4980762;28;20424;-70
2021/07/29 11:49:24;;;;;;;6.90;2.40;;;21.20;92.60;;;;;;4981214;28;20467;-70
2021/07/29 11:52:07;;;;;;;3.80;2.60;;;21.10;92.20;;;;;;4985630;28;20480;-70
2021/07/29 11:54:33;;;;;;;3.97;2.60;;;21.10;92.30;;;;;;4984748;28;20408;-70
2021/07/29 11:56:59;;;;;;;3.70;2.77;;;21.10;92.50;;;;;;4963442;28;20498;-70
2021/07/29 11:59:26;;;;;;;7.20;3.90;;;21.00;92.60;;;;;;4981073;28;20898;-70
2021/07/29 12:01:54;;;;;;;10.30;2.80;;;21.00;92.70;;;;;;4980229;28;20293;-70
2021/07/29 12:04:20;;;;;;;2.40;2.20;;;21.00;92.20;;;;;;4990276;28;20455;-71
2021/07/29 12:06:48;;;;;;;5.30;2.83;;;20.90;91.80;;;;;;4996310;28;20425;-70
2021/07/29 12:09:13;;;;;;;4.63;2.30;;;20.90;91.90;;;;;;4991547;28;20400;-70
2021/07/29 12:11:39;;;;;;;5.80;2.13;;;20.80;91.50;;;;;;4978876;28;20416;-71
2021/07/29 12:14:05;;;;;;;3.00;2.10;;;20.80;91.40;;;;;;4977611;28;20247;-71
2021/07/29 12:16:45;;;;;;;2.93;2.30;;;20.70;91.60;;;;;;4976930;28;20497;-71
2021/07/29 12:19:10;;;;;;;4.13;2.60;;;20.70;92.40;;;;;;4978477;28;20255;-70
2021/07/29 12:21:36;;;;;;;5.73;3.50;;;20.80;92.90;;;;;;4980075;28;20494;-70
2021/07/29 12:24:02;;;;;;;4.87;2.50;;;20.80;93.00;;;;;;4978326;28;20192;-71
2021/07/29 12:26:27;;;;;;;7.13;2.40;;;20.90;91.90;;;;;;4976975;28;20169;-70
2021/07/29 12:28:53;;;;;;;6.17;2.27;;;20.90;90.10;;;;;;4977948;28;20189;-70
2021/07/29 12:31:29;;;;;;;4.10;2.17;;;21.00;90.00;;;;;;4979604;28;20193;-70
2021/07/29 12:33:57;;;;;;;5.93;2.63;;;21.10;90.20;;;;;;4978959;28;20189;-70
2021/07/29 12:36:43;;;;;;;7.60;2.40;;;21.20;90.20;;;;;;4979156;28;20404;-71
2021/07/29 12:39:09;;;;;;;3.00;2.30;;;21.30;90.50;;;;;;4979233;28;20818;-70
2021/07/29 12:41:38;;;;;;;7.87;2.60;;;21.30;90.70;;;;;;4979241;28;20464;-70
2021/07/29 12:44:20;;;;;;;4.80;3.20;;;21.20;90.50;;;;;;4978419;28;20456;-71
2021/07/29 12:46:47;;;;;;;4.30;2.27;;;21.00;90.20;;;;;;4978489;28;20487;-70
2021/07/29 12:49:20;;;;;;;2.80;2.50;;;20.90;90.40;;;;;;4977999;28;20829;-72